createdAt,value
2023-03-30T00:02:10.463Z,13.77
2023-03-30T00:05:13.847Z,13.72
2023-03-30T00:08:18.109Z,13.75
2023-03-30T00:11:23.001Z,13.75
2023-03-30T00:14:29.517Z,13.80
2023-03-30T00:17:31.100Z,13.79
2023-03-30T00:20:32.606Z,13.75
2023-03-30T00:23:34.117Z,13.64
2023-03-30T00:26:35.903Z,13.56
2023-03-30T00:29:37.297Z,13.49
2023-03-30T00:32:39.120Z,13.48
2023-03-30T00:35:40.639Z,13.43
2023-03-30T00:38:42.035Z,13.37
2023-03-30T00:41:43.468Z,13.39
2023-03-30T00:45:26.381Z,13.38
2023-03-30T00:48:37.262Z,13.24
2023-03-30T00:51:42.401Z,13.17
2023-03-30T00:54:43.905Z,13.12
2023-03-30T00:57:46.841Z,13.10
2023-03-30T01:00:48.604Z,13.05
2023-03-30T01:03:51.945Z,13.05
2023-03-30T01:06:55.107Z,13.07
2023-03-30T01:09:57.239Z,13.07
2023-03-30T01:12:59.888Z,13.06
2023-03-30T01:16:06.550Z,13.02
2023-03-30T01:19:45.872Z,12.99
2023-03-30T01:23:13.382Z,13.11
2023-03-30T01:26:43.094Z,13.05
2023-03-30T01:30:08.160Z,13.00
2023-03-30T01:33:41.705Z,13.01
2023-03-30T01:36:48.937Z,13.00
2023-03-30T01:40:05.587Z,13.04
2023-03-30T01:43:32.993Z,13.04
2023-03-30T01:46:41.093Z,13.03
2023-03-30T01:49:54.899Z,13.01
2023-03-30T01:53:25.577Z,13.05
2023-03-30T01:56:32.344Z,13.03
2023-03-30T01:59:39.964Z,13.00
2023-03-30T02:02:46.268Z,12.99
2023-03-30T02:05:52.811Z,13.02
2023-03-30T02:08:59.164Z,13.05
2023-03-30T02:12:03.086Z,13.05
2023-03-30T02:15:09.089Z,13.02
2023-03-30T02:18:10.832Z,13.01
2023-03-30T02:21:12.977Z,13.00
2023-03-30T02:24:19.198Z,12.99
2023-03-30T02:27:23.411Z,12.96
2023-03-30T02:30:24.827Z,12.91
2023-03-30T02:33:47.635Z,12.85
2023-03-30T02:37:09.925Z,12.83
2023-03-30T02:40:35.717Z,12.75
2023-03-30T02:43:49.741Z,12.71
2023-03-30T02:47:02.530Z,12.68
2023-03-30T02:50:21.113Z,12.72
2023-03-30T02:53:28.725Z,12.71
2023-03-30T02:56:45.123Z,12.71
2023-03-30T03:00:12.625Z,12.71
2023-03-30T03:03:19.845Z,12.71
2023-03-30T03:06:23.702Z,12.75
2023-03-30T03:09:28.989Z,12.77
2023-03-30T03:12:31.708Z,12.73
2023-03-30T03:15:33.112Z,12.74
2023-03-30T03:18:45.988Z,12.77
2023-03-30T03:21:47.468Z,12.80
2023-03-30T03:24:49.371Z,12.80
2023-03-30T03:28:17.353Z,12.81
2023-03-30T03:31:26.991Z,12.81
2023-03-30T03:34:31.508Z,12.88
2023-03-30T03:37:37.156Z,12.90
2023-03-30T03:40:38.991Z,12.93
2023-03-30T03:43:40.589Z,12.94
2023-03-30T03:46:42.095Z,12.97
2023-03-30T03:49:43.804Z,13.01
2023-03-30T03:52:45.314Z,13.03
2023-03-30T03:55:47.010Z,13.02
2023-03-30T03:58:48.408Z,13.02
2023-03-30T04:01:50.015Z,13.03
2023-03-30T04:04:52.295Z,13.02
2023-03-30T04:07:53.723Z,13.04
2023-03-30T04:10:55.555Z,13.04
2023-03-30T04:14:10.841Z,13.03
2023-03-30T04:17:36.817Z,13.04
2023-03-30T04:20:59.434Z,13.10
2023-03-30T04:24:29.614Z,13.18
2023-03-30T04:27:51.124Z,13.36
2023-03-30T04:31:10.504Z,13.34
2023-03-30T04:34:30.846Z,13.35
2023-03-30T04:38:02.394Z,13.33
2023-03-30T04:41:35.803Z,13.34
2023-03-30T04:45:06.033Z,13.32
2023-03-30T04:48:33.295Z,13.29
2023-03-30T04:51:56.061Z,13.30
2023-03-30T04:55:23.937Z,13.32
2023-03-30T04:58:44.930Z,13.36
2023-03-30T05:01:59.742Z,13.30
2023-03-30T05:05:09.242Z,13.23
2023-03-30T05:08:23.535Z,13.16
2023-03-30T05:11:44.884Z,13.13
2023-03-30T05:15:05.092Z,13.09
2023-03-30T05:18:26.767Z,13.05
2023-03-30T05:21:28.178Z,13.00
2023-03-30T05:24:48.215Z,12.86
2023-03-30T05:27:58.000Z,12.78
2023-03-30T05:31:13.645Z,12.80
2023-03-30T05:34:30.365Z,12.83
2023-03-30T05:37:38.979Z,12.81
2023-03-30T05:41:01.248Z,12.84
2023-03-30T05:44:23.262Z,12.95
2023-03-30T05:47:47.690Z,12.91
2023-03-30T05:51:04.382Z,12.99
2023-03-30T05:54:22.839Z,12.89
2023-03-30T05:57:42.891Z,12.81
2023-03-30T06:01:05.898Z,12.74
2023-03-30T06:04:13.207Z,12.67
2023-03-30T06:07:17.937Z,12.72
2023-03-30T06:10:19.741Z,12.84
2023-03-30T06:13:22.922Z,12.97
2023-03-30T06:16:26.571Z,13.14
2023-03-30T06:19:28.031Z,13.15
2023-03-30T06:22:31.428Z,13.14
2023-03-30T06:25:38.708Z,13.19
2023-03-30T06:28:41.179Z,13.19
2023-03-30T06:31:42.910Z,13.35
2023-03-30T06:35:03.909Z,13.41
2023-03-30T06:38:05.852Z,13.36
2023-03-30T06:41:09.868Z,13.28
2023-03-30T06:44:14.808Z,13.14
2023-03-30T06:47:16.501Z,13.02
2023-03-30T06:50:18.108Z,12.99
2023-03-30T06:53:32.390Z,13.01
2023-03-30T06:56:33.847Z,12.97
2023-03-30T06:59:47.523Z,13.00
2023-03-30T07:02:55.045Z,13.01
2023-03-30T07:06:02.611Z,13.05
2023-03-30T07:09:13.026Z,13.09
2023-03-30T07:12:15.303Z,13.09
2023-03-30T07:15:17.248Z,13.12
2023-03-30T07:18:19.296Z,13.12
2023-03-30T07:21:20.990Z,13.07
2023-03-30T07:24:22.538Z,13.04
2023-03-30T07:27:25.438Z,12.96
2023-03-30T07:30:31.387Z,12.97
2023-03-30T07:33:38.497Z,12.90
2023-03-30T07:36:41.700Z,12.91
2023-03-30T07:39:43.106Z,12.89
2023-03-30T07:42:45.270Z,12.86
2023-03-30T07:45:47.294Z,12.97
2023-03-30T07:48:56.422Z,13.01
2023-03-30T07:51:59.152Z,12.97
2023-03-30T07:55:08.946Z,12.96
2023-03-30T07:58:22.855Z,12.98
2023-03-30T08:01:24.307Z,12.92
2023-03-30T08:04:46.646Z,12.99
2023-03-30T08:07:51.911Z,12.97
2023-03-30T08:10:59.144Z,13.00
2023-03-30T08:14:00.621Z,13.04
2023-03-30T08:17:02.005Z,13.03
2023-03-30T08:20:08.671Z,13.13
2023-03-30T08:23:11.249Z,13.22
2023-03-30T08:26:12.707Z,13.31
2023-03-30T08:29:14.504Z,13.39
2023-03-30T08:32:16.157Z,13.50
2023-03-30T08:35:18.014Z,13.53
2023-03-30T08:38:19.449Z,13.60
2023-03-30T08:41:29.915Z,13.60
2023-03-30T08:44:40.662Z,13.63
2023-03-30T08:47:47.914Z,13.71
2023-03-30T08:50:58.609Z,13.69
2023-03-30T08:54:05.331Z,13.79
2023-03-30T08:57:24.845Z,13.91
2023-03-30T09:00:32.577Z,14.05
2023-03-30T09:03:45.240Z,14.08
2023-03-30T09:06:52.751Z,14.00
2023-03-30T09:09:57.004Z,14.00
2023-03-30T09:13:02.145Z,14.00
2023-03-30T09:16:28.083Z,13.99
2023-03-30T09:19:42.191Z,14.01
2023-03-30T09:22:45.498Z,13.97
2023-03-30T09:26:01.126Z,14.01
2023-03-30T09:29:16.634Z,13.99
2023-03-30T09:32:31.056Z,14.02
2023-03-30T09:35:40.544Z,14.06
2023-03-30T09:38:43.072Z,14.10
2023-03-30T09:42:18.593Z,14.14
2023-03-30T09:45:21.921Z,14.22
2023-03-30T09:48:23.767Z,14.26
2023-03-30T09:51:30.706Z,14.22
2023-03-30T09:54:41.261Z,14.23
2023-03-30T09:57:42.711Z,14.27
2023-03-30T10:00:44.959Z,14.40
2023-03-30T10:04:07.054Z,14.41
2023-03-30T10:07:22.238Z,14.45
2023-03-30T10:10:29.115Z,14.50
2023-03-30T10:13:33.561Z,14.47
2023-03-30T10:16:35.408Z,14.52
2023-03-30T10:19:45.948Z,14.61
2023-03-30T10:22:55.859Z,14.71
2023-03-30T10:26:03.729Z,14.72
2023-03-30T10:29:07.925Z,14.78
2023-03-30T10:32:19.209Z,14.86
2023-03-30T10:35:26.274Z,14.95
2023-03-30T10:38:33.100Z,15.00
2023-03-30T10:41:37.556Z,15.16
2023-03-30T10:44:47.883Z,15.37
2023-03-30T10:48:14.298Z,15.44
2023-03-30T10:51:32.512Z,15.43
2023-03-30T10:54:40.593Z,15.54
2023-03-30T10:58:14.094Z,15.71
2023-03-30T11:01:34.819Z,15.86
2023-03-30T11:04:46.968Z,15.95
2023-03-30T11:08:01.193Z,16.14
2023-03-30T11:11:03.157Z,16.29
2023-03-30T11:14:14.431Z,16.15
2023-03-30T11:17:44.318Z,16.17
2023-03-30T11:20:53.274Z,16.30
2023-03-30T11:23:57.365Z,16.71
2023-03-30T11:27:22.266Z,17.18
2023-03-30T11:30:31.424Z,17.28
2023-03-30T11:33:38.871Z,17.32
2023-03-30T11:36:49.522Z,17.22
2023-03-30T11:40:13.250Z,17.37
2023-03-30T11:43:20.331Z,17.40
2023-03-30T11:46:27.797Z,17.34
2023-03-30T11:49:29.311Z,17.44
2023-03-30T11:52:43.582Z,17.57
2023-03-30T11:56:05.522Z,17.44
2023-03-30T11:59:33.159Z,17.53
2023-03-30T12:03:19.496Z,17.77
2023-03-30T12:06:31.514Z,17.97
2023-03-30T12:09:41.340Z,17.61
2023-03-30T12:12:44.127Z,17.49
2023-03-30T12:15:55.383Z,17.53
2023-03-30T12:19:24.671Z,17.46
2023-03-30T12:22:58.460Z,17.55
2023-03-30T12:26:02.979Z,17.61
2023-03-30T12:29:44.505Z,17.95
2023-03-30T12:32:29.924Z,17.87
2023-03-30T12:35:49.847Z,17.63
2023-03-30T12:38:53.733Z,17.67
2023-03-30T12:42:07.726Z,17.66
2023-03-30T12:45:15.036Z,17.67
2023-03-30T12:48:38.741Z,17.56
2023-03-30T12:51:55.521Z,17.81
2023-03-30T12:55:28.838Z,17.70
2023-03-30T12:58:57.255Z,17.46
2023-03-30T13:02:26.778Z,17.15
2023-03-30T13:05:38.621Z,17.11
2023-03-30T13:08:42.058Z,16.94
2023-03-30T13:12:20.224Z,17.03
2023-03-30T13:15:57.864Z,16.84
2023-03-30T13:19:13.815Z,16.78
2023-03-30T13:22:15.611Z,16.90
2023-03-30T13:25:19.980Z,17.46
2023-03-30T13:28:54.898Z,17.71
2023-03-30T13:32:07.441Z,18.05
2023-03-30T13:35:18.034Z,18.45
2023-03-30T13:38:39.987Z,18.80
2023-03-30T13:41:54.622Z,19.10
2023-03-30T13:45:28.516Z,18.89
2023-03-30T13:48:54.912Z,18.93
2023-03-30T13:52:11.977Z,18.84
2023-03-30T13:55:22.429Z,18.88
2023-03-30T13:58:33.745Z,19.23
2023-03-30T14:01:39.590Z,19.32
2023-03-30T14:04:41.211Z,19.25
2023-03-30T14:07:46.597Z,19.19
2023-03-30T14:10:51.159Z,19.08
2023-03-30T14:13:53.654Z,19.21
2023-03-30T14:16:57.436Z,19.18
2023-03-30T14:20:18.135Z,18.96
2023-03-30T14:23:48.638Z,19.23
2023-03-30T14:26:50.288Z,19.64
2023-03-30T14:29:52.747Z,19.98
2023-03-30T14:33:06.814Z,19.99
2023-03-30T14:36:11.929Z,20.09
2023-03-30T14:39:14.697Z,20.28
2023-03-30T14:42:21.270Z,19.72
2023-03-30T14:45:22.723Z,19.11
2023-03-30T14:48:29.873Z,19.11
2023-03-30T14:51:39.395Z,19.38
2023-03-30T14:54:51.379Z,19.46
2023-03-30T14:57:59.417Z,19.37
2023-03-30T15:01:09.170Z,18.91
2023-03-30T15:04:15.093Z,19.04
2023-03-30T15:07:17.590Z,19.12
2023-03-30T15:10:33.351Z,19.47
2023-03-30T15:13:46.806Z,19.42
2023-03-30T15:16:53.381Z,19.37
2023-03-30T15:19:57.962Z,18.96
2023-03-30T15:23:00.180Z,18.93
2023-03-30T15:26:04.940Z,19.22
2023-03-30T15:29:06.516Z,19.34
2023-03-30T15:32:15.403Z,19.62
2023-03-30T15:35:43.147Z,19.65
2023-03-30T15:38:53.885Z,19.53
2023-03-30T15:42:01.356Z,19.97
2023-03-30T15:45:13.920Z,19.78
2023-03-30T15:48:40.815Z,19.27
2023-03-30T15:51:47.378Z,18.86
2023-03-30T15:54:55.156Z,18.81
2023-03-30T15:57:56.754Z,18.57
2023-03-30T16:00:58.292Z,18.69
2023-03-30T16:04:00.910Z,18.84
2023-03-30T16:07:08.080Z,19.00
2023-03-30T16:10:20.603Z,18.87
2023-03-30T16:13:22.682Z,18.98
2023-03-30T16:16:24.678Z,18.94
2023-03-30T16:19:26.349Z,19.13
2023-03-30T16:22:27.776Z,19.07
2023-03-30T16:28:33.455Z,18.24
2023-03-30T16:31:35.350Z,18.01
2023-03-30T16:34:36.927Z,17.77
2023-03-30T16:37:38.688Z,17.60
2023-03-30T16:40:43.273Z,17.54
2023-03-30T16:43:44.799Z,17.41
2023-03-30T16:46:47.498Z,17.33
2023-03-30T16:49:48.924Z,17.30
2023-03-30T16:52:51.039Z,17.20
2023-03-30T16:55:52.493Z,17.15
2023-03-30T16:58:53.884Z,17.24
2023-03-30T17:01:55.247Z,17.13
2023-03-30T17:04:56.668Z,17.28
2023-03-30T17:08:06.969Z,17.14
2023-03-30T17:11:10.772Z,17.06
2023-03-30T17:14:12.899Z,17.13
2023-03-30T17:17:14.284Z,16.94
2023-03-30T17:20:36.849Z,17.02
2023-03-30T17:23:38.247Z,17.08
2023-03-30T17:26:39.938Z,17.02
2023-03-30T17:29:41.367Z,17.04
2023-03-30T17:32:43.450Z,16.90
2023-03-30T17:35:49.498Z,16.86
2023-03-30T17:38:51.777Z,16.70
2023-03-30T17:41:53.592Z,16.65
2023-03-30T17:44:54.992Z,16.50
2023-03-30T17:47:57.042Z,16.44
2023-03-30T17:50:58.498Z,16.33
2023-03-30T17:53:59.904Z,16.26
2023-03-30T17:57:01.337Z,16.28
2023-03-30T18:00:11.304Z,16.09
2023-03-30T18:03:17.100Z,15.93
2023-03-30T18:06:18.716Z,15.88
2023-03-30T18:09:20.101Z,15.81
2023-03-30T18:12:21.584Z,15.80
2023-03-30T18:15:27.661Z,15.68
2023-03-30T18:18:30.439Z,15.62
2023-03-30T18:21:31.977Z,15.59
2023-03-30T18:24:33.355Z,15.58
2023-03-30T18:27:34.846Z,15.48
2023-03-30T18:30:37.645Z,15.46
2023-03-30T18:33:39.441Z,15.42
2023-03-30T18:36:42.077Z,15.39
2023-03-30T18:39:45.598Z,15.38
2023-03-30T18:42:47.250Z,15.38
2023-03-30T18:45:50.367Z,15.39
2023-03-30T18:48:51.869Z,15.38
2023-03-30T18:51:53.382Z,15.33
2023-03-30T18:54:54.848Z,15.26
2023-03-30T18:57:57.821Z,15.35
2023-03-30T19:00:59.920Z,15.24
2023-03-30T19:04:01.314Z,15.21
2023-03-30T19:07:02.673Z,15.28
2023-03-30T19:10:04.436Z,15.23
2023-03-30T19:13:05.887Z,15.17
2023-03-30T19:16:09.038Z,15.21
2023-03-30T19:19:14.915Z,15.16
2023-03-30T19:22:17.034Z,15.15
2023-03-30T19:25:19.809Z,15.18
2023-03-30T19:28:21.501Z,15.02
2023-03-30T19:31:23.034Z,14.60
2023-03-30T19:34:24.851Z,13.95
2023-03-30T19:37:26.245Z,13.50
2023-03-30T19:40:27.962Z,13.37
2023-03-30T19:43:30.209Z,13.18
2023-03-30T19:46:31.716Z,13.13
2023-03-30T19:49:33.186Z,13.16
2023-03-30T19:52:34.666Z,13.29
2023-03-30T19:55:37.040Z,13.46
2023-03-30T19:58:38.792Z,13.54
2023-03-30T20:01:40.270Z,13.56
2023-03-30T20:04:42.347Z,13.49
2023-03-30T20:07:45.319Z,13.49
2023-03-30T20:10:49.121Z,13.57
2023-03-30T20:13:51.626Z,13.60
2023-03-30T20:16:53.017Z,13.52
2023-03-30T20:19:54.451Z,13.45
2023-03-30T20:22:56.464Z,13.31
2023-03-30T20:26:02.771Z,13.31
2023-03-30T20:29:04.215Z,13.32
2023-03-30T20:32:05.775Z,13.31
2023-03-30T20:35:07.835Z,13.27
2023-03-30T20:38:09.556Z,13.24
2023-03-30T20:41:11.673Z,13.25
2023-03-30T20:44:13.153Z,13.22
2023-03-30T20:47:17.450Z,13.22
2023-03-30T20:50:18.827Z,13.19
2023-03-30T20:53:20.216Z,13.18
2023-03-30T20:56:21.800Z,13.14
2023-03-30T20:59:23.265Z,13.09
2023-03-30T21:02:24.760Z,13.05
2023-03-30T21:05:26.311Z,13.08
2023-03-30T21:08:27.841Z,13.10
2023-03-30T21:11:31.678Z,13.06
2023-03-30T21:14:33.038Z,12.92
2023-03-30T21:17:34.510Z,12.96
2023-03-30T21:20:36.397Z,12.91
2023-03-30T21:23:40.009Z,12.68
2023-03-30T21:26:41.569Z,12.78
2023-03-30T21:29:42.960Z,12.78
2023-03-30T21:32:44.372Z,12.60
2023-03-30T21:35:50.912Z,12.56
2023-03-30T21:38:52.302Z,12.53
2023-03-30T21:41:53.766Z,12.50
2023-03-30T21:44:55.240Z,12.44
2023-03-30T21:47:56.758Z,12.41
2023-03-30T21:51:00.370Z,12.37
2023-03-30T21:54:01.778Z,12.42
2023-03-30T21:57:03.240Z,12.36
2023-03-30T22:00:09.891Z,12.37
2023-03-30T22:03:14.983Z,12.53
2023-03-30T22:06:17.351Z,12.50
2023-03-30T22:09:18.763Z,12.49
2023-03-30T22:12:20.442Z,12.39
2023-03-30T22:15:21.900Z,12.38
2023-03-30T22:18:23.500Z,12.39
2023-03-30T22:21:28.991Z,12.38
2023-03-30T22:24:30.409Z,12.38
2023-03-30T22:27:32.678Z,12.47
2023-03-30T22:30:34.913Z,12.52
2023-03-30T22:33:36.311Z,12.51
2023-03-30T22:36:37.694Z,12.52
2023-03-30T22:39:39.249Z,12.54
2023-03-30T22:42:40.754Z,12.47
2023-03-30T22:45:43.151Z,12.47
2023-03-30T22:48:45.102Z,12.48
2023-03-30T22:51:52.471Z,12.45
2023-03-30T22:54:54.463Z,12.39
2023-03-30T22:57:56.938Z,12.36
2023-03-30T23:01:02.219Z,12.37
2023-03-30T23:04:05.570Z,12.33
2023-03-30T23:07:08.032Z,12.29
2023-03-30T23:10:11.679Z,12.12
2023-03-30T23:13:13.870Z,12.06
2023-03-30T23:16:15.391Z,12.10
2023-03-30T23:19:16.790Z,12.08
2023-03-30T23:22:18.157Z,12.09
2023-03-30T23:25:20.812Z,12.12
2023-03-30T23:28:22.277Z,12.16
2023-03-30T23:31:26.590Z,12.21
2023-03-30T23:34:28.328Z,12.22
2023-03-30T23:37:30.277Z,12.23
2023-03-30T23:40:31.737Z,12.20
2023-03-30T23:43:33.186Z,12.21
2023-03-30T23:46:34.747Z,12.18
2023-03-30T23:49:36.294Z,12.14
2023-03-30T23:52:37.675Z,12.13
2023-03-30T23:55:41.106Z,12.12
2023-03-30T23:58:42.929Z,12.18
